BVX323A EGLL-EDDH
Flight info
| Callsign | BVX323A |
|---|---|
| Flight time | 1h 8m |
| Altitude | 39000 |
| Route | BPK Q295 SOMVA DCT MAVAS DCT GASTU DCT OSTOR T904 RIBSO RIBSO3S |
| Aircraft | A359/H-SDE2E3GHIJ3J4J5LM1ORWXY/LB1D1 |
Departure
| Time | 2026-05-06 15:12 |
|---|---|
| Airport | London Heathrow Airport (EGLL) |
Arrival
| Time | 2026-05-06 16:21 |
|---|---|
| Airport | Hamburg Helmut Schmidt Airport (EDDH) |
| Time | Latitude | Longitude | Altitude | Speed | Heading |
|---|---|---|---|---|---|
| 2026-05-06 14:35 | 51.47432 | -0.46315 | 97 ft | 0 kts | 199° |
| 2026-05-06 14:54 | 51.47442 | -0.46310 | 95 ft | 4 kts | 199° |
| 2026-05-06 14:54 | 51.47468 | -0.46296 | 92 ft | 4 kts | 199° |
| 2026-05-06 14:54 | 51.47488 | -0.46285 | 93 ft | 4 kts | 205° |
| 2026-05-06 14:55 | 51.47510 | -0.46262 | 92 ft | 4 kts | 237° |
| 2026-05-06 14:55 | 51.47517 | -0.46227 | 92 ft | 3 kts | 270° |
| 2026-05-06 14:55 | 51.47517 | -0.46185 | 91 ft | 3 kts | 270° |
| 2026-05-06 14:55 | 51.47517 | -0.46178 | 91 ft | 0 kts | 270° |
| 2026-05-06 15:00 | 51.47517 | -0.46186 | 92 ft | 4 kts | 269° |
| 2026-05-06 15:00 | 51.47517 | -0.46273 | 92 ft | 9 kts | 270° |
| 2026-05-06 15:00 | 51.47516 | -0.46391 | 92 ft | 12 kts | 270° |
| 2026-05-06 15:00 | 51.47516 | -0.46534 | 92 ft | 14 kts | 270° |
| 2026-05-06 15:01 | 51.47512 | -0.46698 | 93 ft | 16 kts | 258° |
| 2026-05-06 15:01 | 51.47494 | -0.46845 | 96 ft | 11 kts | 265° |
| 2026-05-06 15:01 | 51.47450 | -0.46885 | 96 ft | 9 kts | 185° |
| 2026-05-06 15:01 | 51.47367 | -0.46869 | 95 ft | 14 kts | 172° |
| 2026-05-06 15:02 | 51.47264 | -0.46866 | 92 ft | 16 kts | 179° |
| 2026-05-06 15:02 | 51.47152 | -0.46865 | 92 ft | 15 kts | 180° |
| 2026-05-06 15:02 | 51.47058 | -0.46864 | 95 ft | 10 kts | 179° |
| 2026-05-06 15:02 | 51.46978 | -0.46863 | 96 ft | 13 kts | 179° |
| 2026-05-06 15:03 | 51.46883 | -0.46862 | 96 ft | 14 kts | 179° |
| 2026-05-06 15:03 | 51.46792 | -0.46861 | 96 ft | 11 kts | 179° |
| 2026-05-06 15:03 | 51.46749 | -0.46900 | 97 ft | 7 kts | 252° |
| 2026-05-06 15:03 | 51.46747 | -0.46988 | 96 ft | 9 kts | 269° |
| 2026-05-06 15:04 | 51.46746 | -0.47100 | 96 ft | 11 kts | 270° |
| 2026-05-06 15:04 | 51.46746 | -0.47228 | 96 ft | 12 kts | 270° |
| 2026-05-06 15:04 | 51.46746 | -0.47365 | 96 ft | 13 kts | 270° |
| 2026-05-06 15:04 | 51.46745 | -0.47505 | 96 ft | 11 kts | 270° |
| 2026-05-06 15:05 | 51.46745 | -0.47642 | 94 ft | 12 kts | 270° |
| 2026-05-06 15:05 | 51.46745 | -0.47780 | 92 ft | 13 kts | 270° |
| 2026-05-06 15:05 | 51.46744 | -0.47925 | 92 ft | 11 kts | 270° |
| 2026-05-06 15:05 | 51.46744 | -0.48024 | 92 ft | 7 kts | 269° |
| 2026-05-06 15:06 | 51.46744 | -0.48077 | 92 ft | 0 kts | 269° |
| 2026-05-06 15:07 | 51.46744 | -0.48083 | 92 ft | 3 kts | 269° |
| 2026-05-06 15:07 | 51.46743 | -0.48154 | 92 ft | 8 kts | 269° |
| 2026-05-06 15:07 | 51.46743 | -0.48253 | 92 ft | 10 kts | 269° |
| 2026-05-06 15:08 | 51.46743 | -0.48369 | 92 ft | 11 kts | 270° |
| 2026-05-06 15:08 | 51.46740 | -0.48440 | 92 ft | 5 kts | 255° |
| 2026-05-06 15:08 | 51.46711 | -0.48467 | 94 ft | 5 kts | 187° |
| 2026-05-06 15:08 | 51.46672 | -0.48468 | 92 ft | 5 kts | 181° |
| 2026-05-06 15:09 | 51.46635 | -0.48468 | 92 ft | 6 kts | 180° |
| 2026-05-06 15:09 | 51.46608 | -0.48468 | 93 ft | 0 kts | 180° |
| 2026-05-06 15:10 | 51.46605 | -0.48468 | 93 ft | 5 kts | 180° |
| 2026-05-06 15:10 | 51.46517 | -0.48468 | 93 ft | 9 kts | 180° |
| 2026-05-06 15:10 | 51.46482 | -0.48441 | 96 ft | 5 kts | 121° |
| 2026-05-06 15:11 | 51.46479 | -0.48390 | 97 ft | 0 kts | 90° |
| 2026-05-06 15:11 | 51.46479 | -0.48387 | 97 ft | 3 kts | 90° |
| 2026-05-06 15:12 | 51.46480 | -0.48061 | 93 ft | 63 kts | 89° |
| 2026-05-06 15:12 | 51.46482 | -0.47003 | 97 ft | 125 kts | 90° |
| 2026-05-06 15:12 | 51.46487 | -0.45355 | 162 ft | 166 kts | 89° |
| 2026-05-06 15:12 | 51.46518 | -0.43598 | 1034 ft | 150 kts | 82° |
| 2026-05-06 15:13 | 51.46828 | -0.42033 | 1620 ft | 147 kts | 52° |
| 2026-05-06 15:13 | 51.47481 | -0.40681 | 1970 ft | 163 kts | 47° |
| 2026-05-06 15:13 | 51.48251 | -0.39220 | 2282 ft | 185 kts | 47° |
| 2026-05-06 15:13 | 51.49147 | -0.37504 | 2552 ft | 210 kts | 47° |
| 2026-05-06 15:14 | 51.50111 | -0.35629 | 2931 ft | 230 kts | 48° |
| 2026-05-06 15:14 | 51.51150 | -0.33590 | 3562 ft | 241 kts | 49° |
| 2026-05-06 15:14 | 51.52080 | -0.31293 | 4195 ft | 251 kts | 63° |
| 2026-05-06 15:14 | 51.52692 | -0.28630 | 4793 ft | 257 kts | 69° |
| 2026-05-06 15:15 | 51.53239 | -0.25885 | 5397 ft | 259 kts | 69° |
| 2026-05-06 15:15 | 51.53894 | -0.23148 | 6089 ft | 264 kts | 59° |
| 2026-05-06 15:15 | 51.55070 | -0.20941 | 6929 ft | 261 kts | 33° |
| 2026-05-06 15:15 | 51.56666 | -0.19557 | 7714 ft | 263 kts | 21° |
| 2026-05-06 15:16 | 51.58370 | -0.18395 | 8486 ft | 270 kts | 20° |
| 2026-05-06 15:16 | 51.60158 | -0.17442 | 9325 ft | 272 kts | 13° |
| 2026-05-06 15:16 | 51.61987 | -0.16614 | 10198 ft | 275 kts | 13° |
| 2026-05-06 15:16 | 51.63892 | -0.15760 | 10656 ft | 294 kts | 13° |
| 2026-05-06 15:17 | 51.65925 | -0.14840 | 11019 ft | 313 kts | 13° |
| 2026-05-06 15:17 | 51.68082 | -0.13903 | 11449 ft | 329 kts | 12° |
| 2026-05-06 15:17 | 51.70325 | -0.12956 | 12052 ft | 337 kts | 12° |
| 2026-05-06 15:17 | 51.72582 | -0.11777 | 12768 ft | 345 kts | 22° |
| 2026-05-06 15:18 | 51.74588 | -0.09676 | 13450 ft | 355 kts | 41° |
| 2026-05-06 15:18 | 51.76114 | -0.06506 | 14117 ft | 364 kts | 60° |
| 2026-05-06 15:18 | 51.76910 | -0.02587 | 14728 ft | 373 kts | 81° |
| 2026-05-06 15:18 | 51.76839 | 0.01606 | 15343 ft | 377 kts | 99° |
| 2026-05-06 15:19 | 51.76504 | 0.05827 | 15912 ft | 383 kts | 91° |
| 2026-05-06 15:19 | 51.76567 | 0.10143 | 16548 ft | 386 kts | 84° |
| 2026-05-06 15:19 | 51.76852 | 0.14467 | 17294 ft | 388 kts | 82° |
| 2026-05-06 15:19 | 51.77240 | 0.18808 | 17964 ft | 393 kts | 80° |
| 2026-05-06 15:20 | 51.77663 | 0.23186 | 18617 ft | 397 kts | 80° |
| 2026-05-06 15:20 | 51.78085 | 0.27607 | 19259 ft | 400 kts | 81° |
| 2026-05-06 15:20 | 51.78490 | 0.32086 | 19826 ft | 405 kts | 81° |
| 2026-05-06 15:20 | 51.78873 | 0.36607 | 20473 ft | 408 kts | 82° |
| 2026-05-06 15:21 | 51.79243 | 0.41172 | 21065 ft | 413 kts | 82° |
| 2026-05-06 15:21 | 51.79608 | 0.45785 | 21666 ft | 415 kts | 82° |
| 2026-05-06 15:21 | 51.79971 | 0.50426 | 22296 ft | 419 kts | 83° |
| 2026-05-06 15:21 | 51.80335 | 0.55112 | 22901 ft | 422 kts | 83° |
| 2026-05-06 15:22 | 51.80702 | 0.59832 | 23500 ft | 425 kts | 83° |
| 2026-05-06 15:22 | 51.81237 | 0.64570 | 23889 ft | 431 kts | 74° |
| 2026-05-06 15:22 | 51.82191 | 0.69182 | 24366 ft | 434 kts | 69° |
| 2026-05-06 15:22 | 51.83283 | 0.73742 | 24861 ft | 437 kts | 68° |
| 2026-05-06 15:23 | 51.84431 | 0.78241 | 25381 ft | 439 kts | 66° |
| 2026-05-06 15:23 | 51.85626 | 0.82804 | 25840 ft | 442 kts | 66° |
| 2026-05-06 15:23 | 51.86837 | 0.87395 | 26342 ft | 445 kts | 66° |
| 2026-05-06 15:23 | 51.88054 | 0.92019 | 26818 ft | 448 kts | 66° |
| 2026-05-06 15:24 | 51.89267 | 0.96685 | 27301 ft | 451 kts | 66° |
| 2026-05-06 15:24 | 51.90476 | 1.01378 | 27849 ft | 452 kts | 67° |
| 2026-05-06 15:24 | 51.91683 | 1.06092 | 28373 ft | 454 kts | 67° |
| 2026-05-06 15:24 | 51.92892 | 1.10833 | 28796 ft | 457 kts | 67° |
| 2026-05-06 15:25 | 51.94110 | 1.15619 | 29221 ft | 461 kts | 67° |
| 2026-05-06 15:25 | 51.95330 | 1.20425 | 29647 ft | 463 kts | 67° |
| 2026-05-06 15:25 | 51.96559 | 1.25272 | 30069 ft | 466 kts | 68° |
| 2026-05-06 15:25 | 51.97795 | 1.30153 | 30416 ft | 469 kts | 68° |
| 2026-05-06 15:26 | 51.99035 | 1.35064 | 30769 ft | 471 kts | 68° |
| 2026-05-06 15:26 | 52.00280 | 1.40000 | 31118 ft | 474 kts | 68° |
| 2026-05-06 15:26 | 52.01528 | 1.44963 | 31458 ft | 476 kts | 68° |
| 2026-05-06 15:26 | 52.02779 | 1.49946 | 31774 ft | 479 kts | 68° |
| 2026-05-06 15:27 | 52.04036 | 1.54967 | 32083 ft | 481 kts | 68° |
| 2026-05-06 15:27 | 52.05299 | 1.60021 | 32353 ft | 484 kts | 68° |
| 2026-05-06 15:27 | 52.06566 | 1.65104 | 32667 ft | 486 kts | 68° |
| 2026-05-06 15:27 | 52.07838 | 1.70221 | 32965 ft | 488 kts | 68° |
| 2026-05-06 15:28 | 52.09107 | 1.75338 | 33268 ft | 490 kts | 68° |
| 2026-05-06 15:28 | 52.10386 | 1.80501 | 33521 ft | 492 kts | 68° |
| 2026-05-06 15:28 | 52.11661 | 1.85665 | 33794 ft | 494 kts | 68° |
| 2026-05-06 15:28 | 52.12941 | 1.90863 | 34031 ft | 496 kts | 68° |
| 2026-05-06 15:29 | 52.14207 | 1.96013 | 34276 ft | 497 kts | 68° |
| 2026-05-06 15:29 | 52.15490 | 2.01247 | 34512 ft | 497 kts | 68° |
| 2026-05-06 15:29 | 52.16767 | 2.06481 | 34785 ft | 497 kts | 68° |
| 2026-05-06 15:29 | 52.18042 | 2.11727 | 35028 ft | 498 kts | 68° |
| 2026-05-06 15:30 | 52.19320 | 2.16975 | 35258 ft | 499 kts | 68° |
| 2026-05-06 15:30 | 52.20600 | 2.22239 | 35462 ft | 500 kts | 68° |
| 2026-05-06 15:30 | 52.21880 | 2.27510 | 35706 ft | 500 kts | 68° |
| 2026-05-06 15:30 | 52.23158 | 2.32791 | 35940 ft | 500 kts | 68° |
| 2026-05-06 15:31 | 52.24433 | 2.38076 | 36145 ft | 501 kts | 68° |
| 2026-05-06 15:31 | 52.25708 | 2.43373 | 36370 ft | 501 kts | 68° |
| 2026-05-06 15:31 | 52.26981 | 2.48678 | 36542 ft | 503 kts | 69° |
| 2026-05-06 15:32 | 52.29535 | 2.59364 | 36868 ft | 506 kts | 69° |
| 2026-05-06 15:32 | 52.30732 | 2.64750 | 37097 ft | 505 kts | 73° |
| 2026-05-06 15:32 | 52.31763 | 2.70242 | 37285 ft | 506 kts | 73° |
| 2026-05-06 15:32 | 52.32760 | 2.75757 | 37494 ft | 506 kts | 74° |
| 2026-05-06 15:33 | 52.33737 | 2.81285 | 37656 ft | 506 kts | 74° |
| 2026-05-06 15:33 | 52.34704 | 2.86821 | 37870 ft | 507 kts | 74° |
| 2026-05-06 15:33 | 52.35668 | 2.92368 | 38040 ft | 507 kts | 74° |
| 2026-05-06 15:33 | 52.36630 | 2.97915 | 38224 ft | 507 kts | 75° |
| 2026-05-06 15:34 | 52.37593 | 3.03472 | 38363 ft | 508 kts | 75° |
| 2026-05-06 15:34 | 52.38555 | 3.09032 | 38537 ft | 508 kts | 75° |
| 2026-05-06 15:34 | 52.39535 | 3.14595 | 38656 ft | 509 kts | 72° |
| 2026-05-06 15:34 | 52.40832 | 3.19908 | 38763 ft | 509 kts | 67° |
| 2026-05-06 15:35 | 52.42260 | 3.25209 | 38899 ft | 510 kts | 66° |
| 2026-05-06 15:35 | 52.43735 | 3.30507 | 38933 ft | 511 kts | 65° |
| 2026-05-06 15:35 | 52.46729 | 3.41089 | 38934 ft | 512 kts | 65° |
| 2026-05-06 15:36 | 52.49717 | 3.51688 | 38933 ft | 512 kts | 65° |
| 2026-05-06 15:36 | 52.52689 | 3.62332 | 38935 ft | 514 kts | 66° |
| 2026-05-06 15:37 | 52.55647 | 3.73004 | 38934 ft | 514 kts | 66° |
| 2026-05-06 15:37 | 52.58601 | 3.83716 | 38926 ft | 514 kts | 66° |
| 2026-05-06 15:38 | 52.61543 | 3.94429 | 38932 ft | 514 kts | 66° |
| 2026-05-06 15:38 | 52.64473 | 4.05147 | 38924 ft | 513 kts | 66° |
| 2026-05-06 15:39 | 52.67389 | 4.15864 | 38930 ft | 512 kts | 66° |
| 2026-05-06 15:39 | 52.70294 | 4.26589 | 38932 ft | 513 kts | 66° |
| 2026-05-06 15:40 | 52.73193 | 4.37346 | 38929 ft | 514 kts | 66° |
| 2026-05-06 15:40 | 52.76087 | 4.48129 | 38925 ft | 514 kts | 66° |
| 2026-05-06 15:41 | 52.78952 | 4.58857 | 38933 ft | 514 kts | 66° |
| 2026-05-06 15:41 | 52.81825 | 4.69668 | 38938 ft | 514 kts | 67° |
| 2026-05-06 15:42 | 52.84689 | 4.80493 | 38938 ft | 514 kts | 67° |
| 2026-05-06 15:42 | 52.87541 | 4.91328 | 38939 ft | 514 kts | 67° |
| 2026-05-06 15:43 | 52.90385 | 5.02181 | 38949 ft | 514 kts | 67° |
| 2026-05-06 15:43 | 52.93221 | 5.13056 | 38926 ft | 514 kts | 67° |
| 2026-05-06 15:44 | 52.96050 | 5.23958 | 38931 ft | 515 kts | 67° |
| 2026-05-06 15:44 | 52.98395 | 5.33032 | 38924 ft | 515 kts | 67° |
| 2026-05-06 15:45 | 53.01207 | 5.43965 | 38920 ft | 515 kts | 68° |
| 2026-05-06 15:45 | 53.04009 | 5.54913 | 38925 ft | 515 kts | 68° |
| 2026-05-06 15:46 | 53.06802 | 5.65876 | 38934 ft | 515 kts | 68° |
| 2026-05-06 15:46 | 53.09585 | 5.76855 | 38936 ft | 515 kts | 68° |
| 2026-05-06 15:47 | 53.12356 | 5.87842 | 38940 ft | 515 kts | 68° |
| 2026-05-06 15:47 | 53.15120 | 5.98856 | 38933 ft | 516 kts | 68° |
| 2026-05-06 15:48 | 53.17880 | 6.09909 | 38931 ft | 516 kts | 68° |
| 2026-05-06 15:48 | 53.20627 | 6.20963 | 38925 ft | 516 kts | 68° |
| 2026-05-06 15:49 | 53.23224 | 6.31464 | 38923 ft | 516 kts | 68° |
| 2026-05-06 15:49 | 53.25930 | 6.42460 | 38917 ft | 516 kts | 68° |
| 2026-05-06 15:50 | 53.28641 | 6.53535 | 38509 ft | 513 kts | 68° |
| 2026-05-06 15:50 | 53.29990 | 6.59064 | 37656 ft | 515 kts | 69° |
| 2026-05-06 15:50 | 53.31337 | 6.64600 | 36888 ft | 514 kts | 69° |
| 2026-05-06 15:51 | 53.32682 | 6.70143 | 36243 ft | 512 kts | 69° |
| 2026-05-06 15:51 | 53.34014 | 6.75643 | 35600 ft | 510 kts | 69° |
| 2026-05-06 15:51 | 53.35343 | 6.81149 | 34929 ft | 508 kts | 69° |
| 2026-05-06 15:51 | 53.36660 | 6.86616 | 34405 ft | 504 kts | 69° |
| 2026-05-06 15:52 | 53.37962 | 6.92034 | 33918 ft | 499 kts | 69° |
| 2026-05-06 15:52 | 53.39248 | 6.97399 | 33367 ft | 494 kts | 69° |
| 2026-05-06 15:52 | 53.40518 | 7.02710 | 32857 ft | 488 kts | 70° |
| 2026-05-06 15:52 | 53.41767 | 7.07946 | 32450 ft | 481 kts | 70° |
| 2026-05-06 15:53 | 53.42995 | 7.13104 | 32155 ft | 472 kts | 70° |
| 2026-05-06 15:53 | 53.44197 | 7.18168 | 31832 ft | 464 kts | 70° |
| 2026-05-06 15:53 | 53.45380 | 7.23167 | 31362 ft | 459 kts | 70° |
| 2026-05-06 15:53 | 53.46554 | 7.28141 | 30773 ft | 458 kts | 70° |
| 2026-05-06 15:54 | 53.47710 | 7.33047 | 30338 ft | 444 kts | 70° |
| 2026-05-06 15:54 | 53.48827 | 7.37788 | 29762 ft | 431 kts | 70° |
| 2026-05-06 15:54 | 53.49921 | 7.42453 | 29191 ft | 427 kts | 70° |
| 2026-05-06 15:54 | 53.51004 | 7.47083 | 28748 ft | 424 kts | 70° |
| 2026-05-06 15:55 | 53.52077 | 7.51684 | 28336 ft | 422 kts | 70° |
| 2026-05-06 15:55 | 53.53145 | 7.56272 | 27904 ft | 421 kts | 70° |
| 2026-05-06 15:55 | 53.54209 | 7.60849 | 27491 ft | 422 kts | 70° |
| 2026-05-06 15:55 | 53.55285 | 7.65493 | 27057 ft | 428 kts | 70° |
| 2026-05-06 15:56 | 53.56367 | 7.70169 | 26628 ft | 429 kts | 70° |
| 2026-05-06 15:56 | 53.57448 | 7.74843 | 26174 ft | 427 kts | 70° |
| 2026-05-06 15:56 | 53.58518 | 7.79484 | 25758 ft | 425 kts | 70° |
| 2026-05-06 15:56 | 53.59585 | 7.84115 | 25326 ft | 421 kts | 69° |
| 2026-05-06 15:57 | 53.60635 | 7.88686 | 24888 ft | 418 kts | 69° |
| 2026-05-06 15:57 | 53.61677 | 7.93233 | 24453 ft | 415 kts | 69° |
| 2026-05-06 15:57 | 53.62698 | 7.97699 | 24033 ft | 413 kts | 69° |
| 2026-05-06 15:57 | 53.63737 | 8.02265 | 23653 ft | 410 kts | 69° |
| 2026-05-06 15:58 | 53.64683 | 8.06793 | 23262 ft | 409 kts | 72° |
| 2026-05-06 15:58 | 53.65538 | 8.11292 | 22803 ft | 407 kts | 73° |
| 2026-05-06 15:58 | 53.66379 | 8.15894 | 22346 ft | 404 kts | 73° |
| 2026-05-06 15:58 | 53.67199 | 8.20405 | 21929 ft | 401 kts | 73° |
| 2026-05-06 15:59 | 53.68022 | 8.24879 | 21496 ft | 398 kts | 73° |
| 2026-05-06 15:59 | 53.68787 | 8.29278 | 21253 ft | 394 kts | 77° |
| 2026-05-06 15:59 | 53.69429 | 8.33770 | 20884 ft | 393 kts | 78° |
| 2026-05-06 15:59 | 53.70028 | 8.38332 | 20358 ft | 391 kts | 79° |
| 2026-05-06 16:00 | 53.70575 | 8.42738 | 19921 ft | 388 kts | 79° |
| 2026-05-06 16:00 | 53.71116 | 8.47232 | 19494 ft | 397 kts | 80° |
| 2026-05-06 16:00 | 53.71666 | 8.51864 | 19137 ft | 406 kts | 80° |
| 2026-05-06 16:00 | 53.72221 | 8.56536 | 18593 ft | 405 kts | 80° |
| 2026-05-06 16:01 | 53.72777 | 8.61195 | 18077 ft | 402 kts | 80° |
| 2026-05-06 16:01 | 53.73326 | 8.65794 | 17594 ft | 396 kts | 79° |
| 2026-05-06 16:01 | 53.73867 | 8.70327 | 17141 ft | 391 kts | 80° |
| 2026-05-06 16:01 | 53.74400 | 8.74806 | 16694 ft | 388 kts | 79° |
| 2026-05-06 16:02 | 53.74929 | 8.79265 | 16247 ft | 386 kts | 79° |
| 2026-05-06 16:02 | 53.75454 | 8.83700 | 15817 ft | 384 kts | 79° |
| 2026-05-06 16:02 | 53.75974 | 8.88112 | 15405 ft | 381 kts | 79° |
| 2026-05-06 16:02 | 53.76487 | 8.92478 | 14954 ft | 377 kts | 81° |
| 2026-05-06 16:03 | 53.76994 | 8.96803 | 14520 ft | 372 kts | 80° |
| 2026-05-06 16:03 | 53.77492 | 9.01061 | 14097 ft | 367 kts | 80° |
| 2026-05-06 16:03 | 53.77982 | 9.05268 | 13663 ft | 363 kts | 81° |
| 2026-05-06 16:03 | 53.78467 | 9.09433 | 13236 ft | 360 kts | 80° |
| 2026-05-06 16:04 | 53.78945 | 9.13573 | 12820 ft | 356 kts | 80° |
| 2026-05-06 16:04 | 53.79412 | 9.17647 | 12411 ft | 349 kts | 79° |
| 2026-05-06 16:04 | 53.79869 | 9.21646 | 11987 ft | 343 kts | 79° |
| 2026-05-06 16:04 | 53.80312 | 9.25575 | 11602 ft | 337 kts | 79° |
| 2026-05-06 16:05 | 53.80430 | 9.29476 | 11222 ft | 331 kts | 96° |
| 2026-05-06 16:05 | 53.79743 | 9.33142 | 10833 ft | 327 kts | 119° |
| 2026-05-06 16:05 | 53.78299 | 9.36028 | 10662 ft | 318 kts | 141° |
| 2026-05-06 16:05 | 53.76433 | 9.37921 | 10478 ft | 308 kts | 154° |
| 2026-05-06 16:06 | 53.74543 | 9.39405 | 10294 ft | 299 kts | 155° |
| 2026-05-06 16:06 | 53.72674 | 9.40846 | 10099 ft | 291 kts | 155° |
| 2026-05-06 16:06 | 53.70863 | 9.42244 | 9984 ft | 279 kts | 154° |
| 2026-05-06 16:06 | 53.69105 | 9.43387 | 9812 ft | 263 kts | 162° |
| 2026-05-06 16:07 | 53.67358 | 9.44094 | 9527 ft | 251 kts | 169° |
| 2026-05-06 16:07 | 53.65642 | 9.44179 | 9481 ft | 247 kts | 184° |
| 2026-05-06 16:07 | 53.63947 | 9.43708 | 8887 ft | 249 kts | 191° |
| 2026-05-06 16:07 | 53.62246 | 9.43039 | 8248 ft | 252 kts | 192° |
| 2026-05-06 16:08 | 53.60551 | 9.42317 | 7683 ft | 251 kts | 192° |
| 2026-05-06 16:08 | 53.58855 | 9.41581 | 7193 ft | 253 kts | 192° |
| 2026-05-06 16:08 | 53.57153 | 9.40829 | 6862 ft | 252 kts | 192° |
| 2026-05-06 16:08 | 53.55468 | 9.40087 | 6712 ft | 250 kts | 192° |
| 2026-05-06 16:09 | 53.53781 | 9.39344 | 6583 ft | 250 kts | 192° |
| 2026-05-06 16:09 | 53.52096 | 9.38602 | 6471 ft | 250 kts | 192° |
| 2026-05-06 16:09 | 53.50414 | 9.37861 | 6341 ft | 249 kts | 192° |
| 2026-05-06 16:09 | 53.48722 | 9.37115 | 6237 ft | 255 kts | 192° |
| 2026-05-06 16:10 | 53.46990 | 9.36354 | 6134 ft | 259 kts | 193° |
| 2026-05-06 16:10 | 53.45248 | 9.35586 | 6035 ft | 259 kts | 193° |
| 2026-05-06 16:10 | 53.43507 | 9.34827 | 5920 ft | 258 kts | 191° |
| 2026-05-06 16:10 | 53.41754 | 9.34605 | 5813 ft | 247 kts | 168° |
| 2026-05-06 16:11 | 53.40240 | 9.35642 | 5695 ft | 228 kts | 141° |
| 2026-05-06 16:11 | 53.39015 | 9.37271 | 5580 ft | 224 kts | 136° |
| 2026-05-06 16:11 | 53.37854 | 9.38956 | 5477 ft | 223 kts | 134° |
| 2026-05-06 16:11 | 53.36989 | 9.41078 | 5378 ft | 217 kts | 105° |
| 2026-05-06 16:12 | 53.36926 | 9.43551 | 5280 ft | 213 kts | 79° |
| 2026-05-06 16:12 | 53.37293 | 9.45944 | 5169 ft | 213 kts | 67° |
| 2026-05-06 16:12 | 53.38001 | 9.48100 | 5064 ft | 212 kts | 57° |
| 2026-05-06 16:12 | 53.38863 | 9.50100 | 5020 ft | 211 kts | 52° |
| 2026-05-06 16:13 | 53.39777 | 9.51991 | 4971 ft | 212 kts | 51° |
| 2026-05-06 16:13 | 53.40723 | 9.53881 | 4873 ft | 211 kts | 51° |
| 2026-05-06 16:13 | 53.41668 | 9.55765 | 4767 ft | 210 kts | 51° |
| 2026-05-06 16:13 | 53.42606 | 9.57643 | 4674 ft | 210 kts | 51° |
| 2026-05-06 16:14 | 53.43527 | 9.59490 | 4551 ft | 201 kts | 51° |
| 2026-05-06 16:14 | 53.44400 | 9.61248 | 4453 ft | 191 kts | 51° |
| 2026-05-06 16:14 | 53.45218 | 9.62896 | 4394 ft | 178 kts | 51° |
| 2026-05-06 16:14 | 53.46001 | 9.64479 | 4366 ft | 176 kts | 51° |
| 2026-05-06 16:15 | 53.46786 | 9.66058 | 4331 ft | 174 kts | 51° |
| 2026-05-06 16:15 | 53.47567 | 9.67626 | 4314 ft | 176 kts | 51° |
| 2026-05-06 16:15 | 53.48350 | 9.69202 | 4261 ft | 176 kts | 51° |
| 2026-05-06 16:15 | 53.49137 | 9.70788 | 4115 ft | 176 kts | 51° |
| 2026-05-06 16:16 | 53.49915 | 9.72357 | 3920 ft | 173 kts | 51° |
| 2026-05-06 16:16 | 53.50685 | 9.73906 | 3649 ft | 172 kts | 51° |
| 2026-05-06 16:16 | 53.51446 | 9.75436 | 3385 ft | 169 kts | 51° |
| 2026-05-06 16:16 | 53.52189 | 9.76931 | 3151 ft | 164 kts | 51° |
| 2026-05-06 16:17 | 53.52909 | 9.78384 | 2913 ft | 159 kts | 51° |
| 2026-05-06 16:17 | 53.53610 | 9.79796 | 2718 ft | 160 kts | 51° |
| 2026-05-06 16:17 | 53.54351 | 9.81288 | 2488 ft | 169 kts | 51° |
| 2026-05-06 16:17 | 53.55100 | 9.82797 | 2245 ft | 168 kts | 51° |
| 2026-05-06 16:18 | 53.55843 | 9.84296 | 2019 ft | 164 kts | 50° |
| 2026-05-06 16:18 | 53.56551 | 9.85725 | 1794 ft | 153 kts | 50° |
| 2026-05-06 16:18 | 53.57196 | 9.87027 | 1585 ft | 137 kts | 50° |
| 2026-05-06 16:18 | 53.57801 | 9.88249 | 1418 ft | 138 kts | 50° |
| 2026-05-06 16:19 | 53.58421 | 9.89499 | 1213 ft | 143 kts | 50° |
| 2026-05-06 16:19 | 53.59077 | 9.90824 | 993 ft | 147 kts | 51° |
| 2026-05-06 16:19 | 53.59724 | 9.92133 | 772 ft | 141 kts | 50° |
| 2026-05-06 16:19 | 53.60320 | 9.93338 | 593 ft | 130 kts | 49° |
| 2026-05-06 16:20 | 53.60894 | 9.94498 | 409 ft | 129 kts | 49° |
| 2026-05-06 16:20 | 53.61479 | 9.95681 | 245 ft | 132 kts | 50° |
| 2026-05-06 16:20 | 53.62066 | 9.96857 | 88 ft | 131 kts | 50° |
| 2026-05-06 16:20 | 53.62605 | 9.97949 | 48 ft | 103 kts | 50° |
| 2026-05-06 16:21 | 53.62963 | 9.98676 | 47 ft | 48 kts | 50° |
| 2026-05-06 16:21 | 53.63087 | 9.99027 | 50 ft | 31 kts | 77° |
| 2026-05-06 16:21 | 53.63086 | 9.99245 | 51 ft | 6 kts | 94° |
| 2026-05-06 16:21 | 53.63083 | 9.99331 | 50 ft | 8 kts | 85° |
| 2026-05-06 16:22 | 53.63107 | 9.99423 | 48 ft | 9 kts | 56° |
| 2026-05-06 16:22 | 53.63150 | 9.99523 | 49 ft | 12 kts | 53° |
| 2026-05-06 16:22 | 53.63203 | 9.99636 | 50 ft | 7 kts | 49° |
| 2026-05-06 16:22 | 53.63239 | 9.99703 | 48 ft | 8 kts | 43° |
| 2026-05-06 16:23 | 53.63277 | 9.99763 | 52 ft | 9 kts | 47° |
| 2026-05-06 16:23 | 53.63320 | 9.99849 | 48 ft | 10 kts | 48° |
| 2026-05-06 16:23 | 53.63370 | 9.99947 | 50 ft | 12 kts | 50° |
| 2026-05-06 16:23 | 53.63414 | 10.00038 | 49 ft | 8 kts | 51° |
| 2026-05-06 16:24 | 53.63437 | 10.00091 | 57 ft | 6 kts | 62° |
| 2026-05-06 16:24 | 53.63436 | 10.00160 | 55 ft | 7 kts | 97° |
| 2026-05-06 16:24 | 53.63430 | 10.00232 | 54 ft | 5 kts | 99° |
| 2026-05-06 16:24 | 53.63425 | 10.00278 | 52 ft | 1 kts | 99° |
| 2026-05-06 16:25 | 53.63424 | 10.00287 | 54 ft | 0 kts | 99° |
| 2026-05-06 16:25 | 53.63424 | 10.00291 | 55 ft | 2 kts | 99° |
| 2026-05-06 16:25 | 53.63420 | 10.00328 | 57 ft | 0 kts | 99° |